Terminal Aerodrome Forecast
Issued by NWS Pendleton, OR

Home | Current Version | Previous Version | Text Only | Print | Product List | Glossary On
Versions: 1 2 3 4 5 6 7 8 9 10 11 12 13 14 15 16 17 18
000
FTUS46 KPDT 241728
TAFPDT
TAF
KPDT 241728Z 2418/2518 28008KT P6SM SKC
     FM242100 29009KT P6SM FEW250
     FM250400 24009KT P6SM SCT200
     FM251200 22009KT P6SM BKN200
     FM251700 26011KT P6SM BKN200=

USA.gov is the U.S. government's official web portal to all federal, state and local government web resources and services.